sensor_id;sensor_type;location;lat;lon;timestamp;P1;durP1;ratioP1;P2;durP2;ratioP2
57899;SDS011;60605;53.716;19.940;2023-08-20T00:00:13;26.80;;;23.90;;
57899;SDS011;60605;53.716;19.940;2023-08-20T00:05:36;24.10;;;21.80;;
57899;SDS011;60605;53.716;19.940;2023-08-20T00:10:39;24.00;;;21.70;;
57899;SDS011;60605;53.716;19.940;2023-08-20T00:15:41;23.40;;;20.60;;
57899;SDS011;60605;53.716;19.940;2023-08-20T00:20:43;23.10;;;21.00;;
57899;SDS011;60605;53.716;19.940;2023-08-20T00:25:47;23.70;;;21.20;;
57899;SDS011;60605;53.716;19.940;2023-08-20T00:30:49;23.10;;;20.90;;
57899;SDS011;60605;53.716;19.940;2023-08-20T00:35:51;22.90;;;20.40;;
57899;SDS011;60605;53.716;19.940;2023-08-20T00:40:53;22.80;;;20.80;;
57899;SDS011;60605;53.716;19.940;2023-08-20T00:45:55;24.10;;;21.80;;
57899;SDS011;60605;53.716;19.940;2023-08-20T00:50:57;25.90;;;23.40;;
57899;SDS011;60605;53.716;19.940;2023-08-20T00:55:59;27.00;;;21.70;;
57899;SDS011;60605;53.716;19.940;2023-08-20T01:01:01;24.10;;;21.90;;
57899;SDS011;60605;53.716;19.940;2023-08-20T01:06:12;27.40;;;24.20;;
57899;SDS011;60605;53.716;19.940;2023-08-20T01:11:28;24.10;;;21.70;;
57899;SDS011;60605;53.716;19.940;2023-08-20T01:16:35;26.80;;;24.20;;
57899;SDS011;60605;53.716;19.940;2023-08-20T01:21:37;27.30;;;24.60;;
57899;SDS011;60605;53.716;19.940;2023-08-20T01:26:48;25.20;;;22.90;;
57899;SDS011;60605;53.716;19.940;2023-08-20T01:32:22;25.80;;;23.10;;
57899;SDS011;60605;53.716;19.940;2023-08-20T01:37:25;26.70;;;24.10;;
57899;SDS011;60605;53.716;19.940;2023-08-20T01:42:27;26.50;;;23.90;;
57899;SDS011;60605;53.716;19.940;2023-08-20T01:47:29;25.30;;;23.10;;
57899;SDS011;60605;53.716;19.940;2023-08-20T01:52:31;24.50;;;22.30;;
57899;SDS011;60605;53.716;19.940;2023-08-20T01:57:33;23.40;;;21.10;;
57899;SDS011;60605;53.716;19.940;2023-08-20T02:02:35;23.40;;;21.30;;
57899;SDS011;60605;53.716;19.940;2023-08-20T02:07:37;23.00;;;20.90;;
57899;SDS011;60605;53.716;19.940;2023-08-20T02:12:40;22.60;;;20.50;;
57899;SDS011;60605;53.716;19.940;2023-08-20T02:17:42;21.90;;;19.60;;
57899;SDS011;60605;53.716;19.940;2023-08-20T02:22:44;21.70;;;19.50;;
57899;SDS011;60605;53.716;19.940;2023-08-20T02:27:46;22.50;;;20.40;;
57899;SDS011;60605;53.716;19.940;2023-08-20T02:32:48;21.80;;;19.90;;
57899;SDS011;60605;53.716;19.940;2023-08-20T02:37:50;21.50;;;19.60;;
57899;SDS011;60605;53.716;19.940;2023-08-20T02:42:52;20.80;;;19.20;;
57899;SDS011;60605;53.716;19.940;2023-08-20T02:47:54;23.90;;;21.50;;
57899;SDS011;60605;53.716;19.940;2023-08-20T02:52:55;23.10;;;21.10;;
57899;SDS011;60605;53.716;19.940;2023-08-20T02:57:57;21.00;;;19.20;;
57899;SDS011;60605;53.716;19.940;2023-08-20T03:03:00;21.60;;;19.50;;
57899;SDS011;60605;53.716;19.940;2023-08-20T03:08:04;21.00;;;19.20;;
57899;SDS011;60605;53.716;19.940;2023-08-20T03:13:06;20.80;;;18.90;;
57899;SDS011;60605;53.716;19.940;2023-08-20T03:18:08;20.80;;;19.00;;
57899;SDS011;60605;53.716;19.940;2023-08-20T03:23:10;21.80;;;19.90;;
57899;SDS011;60605;53.716;19.940;2023-08-20T03:28:12;23.30;;;21.00;;
57899;SDS011;60605;53.716;19.940;2023-08-20T03:33:14;20.10;;;18.30;;
57899;SDS011;60605;53.716;19.940;2023-08-20T03:38:18;24.30;;;21.90;;
57899;SDS011;60605;53.716;19.940;2023-08-20T03:43:20;23.30;;;21.00;;
57899;SDS011;60605;53.716;19.940;2023-08-20T03:48:22;29.60;;;26.60;;
57899;SDS011;60605;53.716;19.940;2023-08-20T03:53:24;26.60;;;24.00;;
57899;SDS011;60605;53.716;19.940;2023-08-20T03:58:26;25.40;;;22.70;;
57899;SDS011;60605;53.716;19.940;2023-08-20T04:03:28;28.60;;;25.50;;
57899;SDS011;60605;53.716;19.940;2023-08-20T04:08:30;27.90;;;25.20;;
57899;SDS011;60605;53.716;19.940;2023-08-20T04:13:32;23.50;;;21.00;;
57899;SDS011;60605;53.716;19.940;2023-08-20T04:18:34;24.70;;;22.40;;
57899;SDS011;60605;53.716;19.940;2023-08-20T04:23:36;21.60;;;19.50;;
57899;SDS011;60605;53.716;19.940;2023-08-20T04:28:38;16.00;;;14.50;;
57899;SDS011;60605;53.716;19.940;2023-08-20T04:33:40;14.10;;;12.70;;
57899;SDS011;60605;53.716;19.940;2023-08-20T04:38:42;14.10;;;12.00;;
57899;SDS011;60605;53.716;19.940;2023-08-20T04:43:43;12.80;;;11.50;;
57899;SDS011;60605;53.716;19.940;2023-08-20T04:48:45;11.50;;;10.40;;
57899;SDS011;60605;53.716;19.940;2023-08-20T04:53:47;11.30;;;10.40;;
57899;SDS011;60605;53.716;19.940;2023-08-20T05:03:51;9.90;;;9.10;;
57899;SDS011;60605;53.716;19.940;2023-08-20T05:08:53;11.00;;;8.60;;
57899;SDS011;60605;53.716;19.940;2023-08-20T05:13:55;9.30;;;8.50;;
57899;SDS011;60605;53.716;19.940;2023-08-20T05:18:57;10.60;;;8.30;;
57899;SDS011;60605;53.716;19.940;2023-08-20T05:23:59;8.40;;;7.60;;
57899;SDS011;60605;53.716;19.940;2023-08-20T05:29:01;8.40;;;7.60;;
57899;SDS011;60605;53.716;19.940;2023-08-20T05:34:03;9.10;;;8.30;;
57899;SDS011;60605;53.716;19.940;2023-08-20T05:39:05;7.80;;;6.90;;
57899;SDS011;60605;53.716;19.940;2023-08-20T05:44:07;8.10;;;7.00;;
57899;SDS011;60605;53.716;19.940;2023-08-20T05:49:09;8.00;;;7.20;;
57899;SDS011;60605;53.716;19.940;2023-08-20T05:54:10;7.20;;;6.60;;
57899;SDS011;60605;53.716;19.940;2023-08-20T05:59:13;7.70;;;6.90;;
57899;SDS011;60605;53.716;19.940;2023-08-20T06:04:14;7.60;;;6.80;;
57899;SDS011;60605;53.716;19.940;2023-08-20T06:09:17;7.70;;;7.00;;
57899;SDS011;60605;53.716;19.940;2023-08-20T06:14:19;7.90;;;7.20;;
57899;SDS011;60605;53.716;19.940;2023-08-20T06:19:20;7.90;;;7.20;;
57899;SDS011;60605;53.716;19.940;2023-08-20T06:24:22;8.40;;;7.10;;
57899;SDS011;60605;53.716;19.940;2023-08-20T06:29:25;7.90;;;7.20;;
57899;SDS011;60605;53.716;19.940;2023-08-20T06:34:27;10.60;;;7.10;;
57899;SDS011;60605;53.716;19.940;2023-08-20T06:39:29;7.90;;;7.10;;
57899;SDS011;60605;53.716;19.940;2023-08-20T06:44:31;7.50;;;6.90;;
57899;SDS011;60605;53.716;19.940;2023-08-20T06:49:33;10.10;;;7.50;;
57899;SDS011;60605;53.716;19.940;2023-08-20T06:54:35;7.50;;;6.80;;
57899;SDS011;60605;53.716;19.940;2023-08-20T06:59:36;7.60;;;6.70;;
57899;SDS011;60605;53.716;19.940;2023-08-20T07:04:38;7.30;;;6.60;;
57899;SDS011;60605;53.716;19.940;2023-08-20T07:09:41;12.40;;;6.50;;
57899;SDS011;60605;53.716;19.940;2023-08-20T07:14:43;7.00;;;6.40;;
57899;SDS011;60605;53.716;19.940;2023-08-20T07:19:45;8.70;;;6.60;;
57899;SDS011;60605;53.716;19.940;2023-08-20T07:24:47;5.80;;;5.30;;
57899;SDS011;60605;53.716;19.940;2023-08-20T07:29:49;6.70;;;6.10;;
57899;SDS011;60605;53.716;19.940;2023-08-20T07:34:50;6.50;;;5.70;;
57899;SDS011;60605;53.716;19.940;2023-08-20T07:39:53;6.10;;;5.50;;
57899;SDS011;60605;53.716;19.940;2023-08-20T07:44:55;7.40;;;5.40;;
57899;SDS011;60605;53.716;19.940;2023-08-20T07:49:57;6.40;;;5.10;;
57899;SDS011;60605;53.716;19.940;2023-08-20T07:54:59;7.20;;;5.00;;
57899;SDS011;60605;53.716;19.940;2023-08-20T08:00:02;6.80;;;4.80;;
57899;SDS011;60605;53.716;19.940;2023-08-20T08:05:07;7.20;;;4.50;;
57899;SDS011;60605;53.716;19.940;2023-08-20T08:10:10;5.10;;;4.60;;
57899;SDS011;60605;53.716;19.940;2023-08-20T08:15:12;8.80;;;4.40;;
57899;SDS011;60605;53.716;19.940;2023-08-20T08:20:14;5.60;;;4.60;;
57899;SDS011;60605;53.716;19.940;2023-08-20T08:25:16;5.80;;;4.60;;
57899;SDS011;60605;53.716;19.940;2023-08-20T08:30:18;5.20;;;4.30;;
57899;SDS011;60605;53.716;19.940;2023-08-20T08:35:20;5.20;;;4.40;;
57899;SDS011;60605;53.716;19.940;2023-08-20T08:40:23;5.10;;;4.20;;
57899;SDS011;60605;53.716;19.940;2023-08-20T08:45:30;7.60;;;6.80;;
57899;SDS011;60605;53.716;19.940;2023-08-20T08:50:36;6.00;;;4.70;;
57899;SDS011;60605;53.716;19.940;2023-08-20T08:55:39;4.80;;;4.40;;
57899;SDS011;60605;53.716;19.940;2023-08-20T09:00:45;10.80;;;5.40;;
57899;SDS011;60605;53.716;19.940;2023-08-20T09:05:54;5.90;;;4.30;;
57899;SDS011;60605;53.716;19.940;2023-08-20T09:10:58;5.40;;;4.40;;
57899;SDS011;60605;53.716;19.940;2023-08-20T09:16:07;4.70;;;4.10;;
57899;SDS011;60605;53.716;19.940;2023-08-20T09:21:11;6.20;;;3.90;;
57899;SDS011;60605;53.716;19.940;2023-08-20T09:26:15;5.00;;;4.30;;
57899;SDS011;60605;53.716;19.940;2023-08-20T09:31:17;4.40;;;4.00;;
57899;SDS011;60605;53.716;19.940;2023-08-20T09:36:26;5.20;;;4.00;;
57899;SDS011;60605;53.716;19.940;2023-08-20T09:41:36;7.70;;;4.50;;
57899;SDS011;60605;53.716;19.940;2023-08-20T09:46:40;16.30;;;6.60;;
57899;SDS011;60605;53.716;19.940;2023-08-20T09:51:45;5.00;;;4.60;;
57899;SDS011;60605;53.716;19.940;2023-08-20T10:01:56;4.50;;;4.20;;
57899;SDS011;60605;53.716;19.940;2023-08-20T10:06:59;5.80;;;4.60;;
57899;SDS011;60605;53.716;19.940;2023-08-20T10:12:02;5.70;;;5.20;;
57899;SDS011;60605;53.716;19.940;2023-08-20T10:17:06;10.00;;;5.30;;
57899;SDS011;60605;53.716;19.940;2023-08-20T10:22:09;5.90;;;5.40;;
57899;SDS011;60605;53.716;19.940;2023-08-20T10:27:12;6.20;;;5.60;;
57899;SDS011;60605;53.716;19.940;2023-08-20T10:32:15;5.90;;;5.40;;
57899;SDS011;60605;53.716;19.940;2023-08-20T10:37:17;6.00;;;5.50;;
57899;SDS011;60605;53.716;19.940;2023-08-20T10:42:29;6.60;;;5.60;;
57899;SDS011;60605;53.716;19.940;2023-08-20T10:52:50;6.70;;;6.10;;
57899;SDS011;60605;53.716;19.940;2023-08-20T10:57:56;6.70;;;6.10;;
57899;SDS011;60605;53.716;19.940;2023-08-20T11:03:00;6.80;;;6.20;;
57899;SDS011;60605;53.716;19.940;2023-08-20T11:08:04;6.70;;;6.00;;
57899;SDS011;60605;53.716;19.940;2023-08-20T11:13:09;6.50;;;5.60;;
57899;SDS011;60605;53.716;19.940;2023-08-20T11:18:11;6.60;;;6.00;;
57899;SDS011;60605;53.716;19.940;2023-08-20T11:23:13;6.30;;;5.80;;
57899;SDS011;60605;53.716;19.940;2023-08-20T11:28:16;6.50;;;6.00;;
57899;SDS011;60605;53.716;19.940;2023-08-20T11:33:17;6.70;;;5.70;;
57899;SDS011;60605;53.716;19.940;2023-08-20T11:38:20;6.30;;;5.80;;
57899;SDS011;60605;53.716;19.940;2023-08-20T11:43:29;6.90;;;6.20;;
57899;SDS011;60605;53.716;19.940;2023-08-20T11:48:31;6.80;;;6.20;;
57899;SDS011;60605;53.716;19.940;2023-08-20T11:53:38;6.70;;;6.00;;
57899;SDS011;60605;53.716;19.940;2023-08-20T11:58:42;6.50;;;5.90;;
57899;SDS011;60605;53.716;19.940;2023-08-20T12:03:44;6.20;;;5.70;;
57899;SDS011;60605;53.716;19.940;2023-08-20T12:08:46;6.50;;;5.90;;
57899;SDS011;60605;53.716;19.940;2023-08-20T12:13:49;8.20;;;6.00;;
57899;SDS011;60605;53.716;19.940;2023-08-20T12:18:51;6.20;;;5.70;;
57899;SDS011;60605;53.716;19.940;2023-08-20T12:23:54;7.30;;;5.50;;
57899;SDS011;60605;53.716;19.940;2023-08-20T12:28:57;7.00;;;6.40;;
57899;SDS011;60605;53.716;19.940;2023-08-20T12:34:00;7.60;;;6.40;;
57899;SDS011;60605;53.716;19.940;2023-08-20T12:39:04;7.00;;;6.30;;
57899;SDS011;60605;53.716;19.940;2023-08-20T12:44:06;6.60;;;5.90;;
57899;SDS011;60605;53.716;19.940;2023-08-20T12:49:10;6.30;;;5.70;;
57899;SDS011;60605;53.716;19.940;2023-08-20T12:54:12;7.20;;;6.40;;
57899;SDS011;60605;53.716;19.940;2023-08-20T12:59:14;6.90;;;6.00;;
57899;SDS011;60605;53.716;19.940;2023-08-20T13:04:16;6.50;;;5.80;;
57899;SDS011;60605;53.716;19.940;2023-08-20T13:09:22;6.90;;;6.20;;
57899;SDS011;60605;53.716;19.940;2023-08-20T13:14:24;7.40;;;6.60;;
57899;SDS011;60605;53.716;19.940;2023-08-20T13:19:28;10.40;;;5.90;;
57899;SDS011;60605;53.716;19.940;2023-08-20T13:24:31;6.20;;;5.60;;
57899;SDS011;60605;53.716;19.940;2023-08-20T13:29:34;6.90;;;5.80;;
57899;SDS011;60605;53.716;19.940;2023-08-20T13:34:36;5.80;;;5.30;;
57899;SDS011;60605;53.716;19.940;2023-08-20T13:39:39;6.30;;;5.40;;
57899;SDS011;60605;53.716;19.940;2023-08-20T13:44:43;6.30;;;5.80;;
57899;SDS011;60605;53.716;19.940;2023-08-20T13:49:45;6.60;;;6.00;;
57899;SDS011;60605;53.716;19.940;2023-08-20T13:54:47;6.70;;;5.70;;
57899;SDS011;60605;53.716;19.940;2023-08-20T13:59:49;6.40;;;5.80;;
57899;SDS011;60605;53.716;19.940;2023-08-20T14:04:51;7.40;;;6.00;;
57899;SDS011;60605;53.716;19.940;2023-08-20T14:09:53;10.10;;;6.90;;
57899;SDS011;60605;53.716;19.940;2023-08-20T14:14:57;7.80;;;6.50;;
57899;SDS011;60605;53.716;19.940;2023-08-20T14:19:59;6.30;;;5.70;;
57899;SDS011;60605;53.716;19.940;2023-08-20T14:25:02;7.00;;;6.30;;
57899;SDS011;60605;53.716;19.940;2023-08-20T14:30:05;7.20;;;6.50;;
57899;SDS011;60605;53.716;19.940;2023-08-20T14:35:09;7.00;;;6.30;;
57899;SDS011;60605;53.716;19.940;2023-08-20T14:40:11;6.80;;;6.20;;
57899;SDS011;60605;53.716;19.940;2023-08-20T14:45:14;6.70;;;6.10;;
57899;SDS011;60605;53.716;19.940;2023-08-20T14:50:17;6.90;;;6.10;;
57899;SDS011;60605;53.716;19.940;2023-08-20T14:55:20;6.30;;;5.80;;
57899;SDS011;60605;53.716;19.940;2023-08-20T15:00:24;6.20;;;5.70;;
57899;SDS011;60605;53.716;19.940;2023-08-20T15:05:27;6.30;;;5.70;;
57899;SDS011;60605;53.716;19.940;2023-08-20T15:10:31;6.90;;;6.30;;
57899;SDS011;60605;53.716;19.940;2023-08-20T15:15:33;7.20;;;6.70;;
57899;SDS011;60605;53.716;19.940;2023-08-20T15:20:36;7.60;;;6.60;;
57899;SDS011;60605;53.716;19.940;2023-08-20T15:25:38;7.30;;;6.60;;
57899;SDS011;60605;53.716;19.940;2023-08-20T15:30:41;11.90;;;7.50;;
57899;SDS011;60605;53.716;19.940;2023-08-20T15:35:43;9.90;;;6.70;;
57899;SDS011;60605;53.716;19.940;2023-08-20T15:40:46;7.90;;;6.80;;
57899;SDS011;60605;53.716;19.940;2023-08-20T15:45:48;7.20;;;6.70;;
57899;SDS011;60605;53.716;19.940;2023-08-20T15:50:50;7.60;;;7.00;;
57899;SDS011;60605;53.716;19.940;2023-08-20T15:55:52;8.40;;;6.80;;
57899;SDS011;60605;53.716;19.940;2023-08-20T16:00:54;7.80;;;7.00;;
57899;SDS011;60605;53.716;19.940;2023-08-20T16:05:56;8.70;;;7.10;;
57899;SDS011;60605;53.716;19.940;2023-08-20T16:11:00;8.00;;;7.20;;
57899;SDS011;60605;53.716;19.940;2023-08-20T16:16:02;8.30;;;6.50;;
57899;SDS011;60605;53.716;19.940;2023-08-20T16:21:05;8.20;;;6.70;;
57899;SDS011;60605;53.716;19.940;2023-08-20T16:26:06;7.60;;;6.80;;
57899;SDS011;60605;53.716;19.940;2023-08-20T16:31:09;7.30;;;6.50;;
57899;SDS011;60605;53.716;19.940;2023-08-20T16:36:11;8.20;;;6.60;;
57899;SDS011;60605;53.716;19.940;2023-08-20T16:41:15;6.90;;;6.30;;
57899;SDS011;60605;53.716;19.940;2023-08-20T16:46:17;7.00;;;6.40;;
57899;SDS011;60605;53.716;19.940;2023-08-20T16:51:20;6.40;;;5.80;;
57899;SDS011;60605;53.716;19.940;2023-08-20T16:56:22;7.10;;;6.30;;
57899;SDS011;60605;53.716;19.940;2023-08-20T17:11:28;7.10;;;6.40;;
57899;SDS011;60605;53.716;19.940;2023-08-20T17:16:31;7.60;;;6.90;;
57899;SDS011;60605;53.716;19.940;2023-08-20T17:21:34;8.30;;;7.10;;
57899;SDS011;60605;53.716;19.940;2023-08-20T17:26:39;9.70;;;7.10;;
57899;SDS011;60605;53.716;19.940;2023-08-20T17:31:43;7.40;;;6.70;;
57899;SDS011;60605;53.716;19.940;2023-08-20T17:41:47;6.70;;;6.10;;
57899;SDS011;60605;53.716;19.940;2023-08-20T17:46:49;7.10;;;6.50;;
57899;SDS011;60605;53.716;19.940;2023-08-20T17:51:51;7.40;;;6.60;;
57899;SDS011;60605;53.716;19.940;2023-08-20T17:56:54;7.70;;;6.90;;
57899;SDS011;60605;53.716;19.940;2023-08-20T18:01:56;9.50;;;7.20;;
57899;SDS011;60605;53.716;19.940;2023-08-20T18:06:59;8.20;;;6.80;;
57899;SDS011;60605;53.716;19.940;2023-08-20T18:12:01;10.50;;;7.20;;
57899;SDS011;60605;53.716;19.940;2023-08-20T18:17:03;8.20;;;7.50;;
57899;SDS011;60605;53.716;19.940;2023-08-20T18:22:06;9.70;;;8.70;;
57899;SDS011;60605;53.716;19.940;2023-08-20T18:27:08;8.90;;;8.00;;
57899;SDS011;60605;53.716;19.940;2023-08-20T18:32:10;8.70;;;7.90;;
57899;SDS011;60605;53.716;19.940;2023-08-20T18:37:13;9.30;;;8.50;;
57899;SDS011;60605;53.716;19.940;2023-08-20T18:42:15;8.80;;;8.00;;
57899;SDS011;60605;53.716;19.940;2023-08-20T18:47:17;8.80;;;7.90;;
57899;SDS011;60605;53.716;19.940;2023-08-20T18:52:19;10.30;;;9.20;;
57899;SDS011;60605;53.716;19.940;2023-08-20T18:57:21;8.90;;;8.10;;
57899;SDS011;60605;53.716;19.940;2023-08-20T19:02:23;9.50;;;8.20;;
57899;SDS011;60605;53.716;19.940;2023-08-20T19:07:25;10.30;;;8.50;;
57899;SDS011;60605;53.716;19.940;2023-08-20T19:12:31;7.90;;;7.20;;
57899;SDS011;60605;53.716;19.940;2023-08-20T19:17:35;8.90;;;8.00;;
57899;SDS011;60605;53.716;19.940;2023-08-20T19:22:39;8.00;;;7.40;;
57899;SDS011;60605;53.716;19.940;2023-08-20T19:27:43;7.70;;;7.20;;
57899;SDS011;60605;53.716;19.940;2023-08-20T19:32:46;7.90;;;7.30;;
57899;SDS011;60605;53.716;19.940;2023-08-20T19:37:49;9.10;;;8.20;;
57899;SDS011;60605;53.716;19.940;2023-08-20T19:42:51;8.80;;;8.00;;
57899;SDS011;60605;53.716;19.940;2023-08-20T19:47:53;8.60;;;7.80;;
57899;SDS011;60605;53.716;19.940;2023-08-20T19:52:58;9.40;;;8.30;;
57899;SDS011;60605;53.716;19.940;2023-08-20T19:58:00;9.30;;;8.30;;
57899;SDS011;60605;53.716;19.940;2023-08-20T20:03:05;12.00;;;8.40;;
57899;SDS011;60605;53.716;19.940;2023-08-20T20:08:08;9.50;;;8.50;;
57899;SDS011;60605;53.716;19.940;2023-08-20T20:13:10;9.00;;;8.30;;
57899;SDS011;60605;53.716;19.940;2023-08-20T20:18:13;9.60;;;8.40;;
57899;SDS011;60605;53.716;19.940;2023-08-20T20:23:15;10.00;;;9.00;;
57899;SDS011;60605;53.716;19.940;2023-08-20T20:28:19;10.60;;;9.60;;
57899;SDS011;60605;53.716;19.940;2023-08-20T20:33:21;9.00;;;8.30;;
57899;SDS011;60605;53.716;19.940;2023-08-20T20:38:23;8.80;;;8.00;;
57899;SDS011;60605;53.716;19.940;2023-08-20T20:43:25;9.70;;;8.70;;
57899;SDS011;60605;53.716;19.940;2023-08-20T20:48:28;9.30;;;8.50;;
57899;SDS011;60605;53.716;19.940;2023-08-20T20:53:30;8.90;;;8.00;;
57899;SDS011;60605;53.716;19.940;2023-08-20T20:58:31;9.30;;;8.50;;
57899;SDS011;60605;53.716;19.940;2023-08-20T21:03:33;10.30;;;9.30;;
57899;SDS011;60605;53.716;19.940;2023-08-20T21:08:35;9.10;;;8.30;;
57899;SDS011;60605;53.716;19.940;2023-08-20T21:13:37;9.90;;;8.30;;
57899;SDS011;60605;53.716;19.940;2023-08-20T21:18:39;9.10;;;8.10;;
57899;SDS011;60605;53.716;19.940;2023-08-20T21:23:41;9.90;;;8.60;;
57899;SDS011;60605;53.716;19.940;2023-08-20T21:28:43;11.50;;;8.00;;
57899;SDS011;60605;53.716;19.940;2023-08-20T21:33:45;10.40;;;8.50;;
57899;SDS011;60605;53.716;19.940;2023-08-20T21:38:48;9.30;;;8.40;;
57899;SDS011;60605;53.716;19.940;2023-08-20T21:43:50;10.00;;;9.20;;
57899;SDS011;60605;53.716;19.940;2023-08-20T21:48:51;9.50;;;8.30;;
57899;SDS011;60605;53.716;19.940;2023-08-20T21:53:53;10.60;;;9.40;;
57899;SDS011;60605;53.716;19.940;2023-08-20T21:58:55;12.30;;;10.00;;
57899;SDS011;60605;53.716;19.940;2023-08-20T22:03:57;11.70;;;10.60;;
57899;SDS011;60605;53.716;19.940;2023-08-20T22:08:59;14.30;;;12.50;;
57899;SDS011;60605;53.716;19.940;2023-08-20T22:14:01;13.00;;;11.70;;
57899;SDS011;60605;53.716;19.940;2023-08-20T22:19:04;12.70;;;11.50;;
57899;SDS011;60605;53.716;19.940;2023-08-20T22:24:06;14.00;;;12.80;;
57899;SDS011;60605;53.716;19.940;2023-08-20T22:29:08;15.10;;;13.60;;
57899;SDS011;60605;53.716;19.940;2023-08-20T22:34:10;19.80;;;17.90;;
57899;SDS011;60605;53.716;19.940;2023-08-20T22:39:12;18.20;;;16.50;;
57899;SDS011;60605;53.716;19.940;2023-08-20T22:44:14;16.70;;;15.10;;
57899;SDS011;60605;53.716;19.940;2023-08-20T22:49:16;14.90;;;13.60;;
57899;SDS011;60605;53.716;19.940;2023-08-20T22:54:18;16.80;;;15.20;;
57899;SDS011;60605;53.716;19.940;2023-08-20T22:59:20;17.50;;;15.50;;
57899;SDS011;60605;53.716;19.940;2023-08-20T23:04:22;16.00;;;14.50;;
57899;SDS011;60605;53.716;19.940;2023-08-20T23:09:24;18.20;;;16.40;;
57899;SDS011;60605;53.716;19.940;2023-08-20T23:14:26;17.50;;;15.60;;
57899;SDS011;60605;53.716;19.940;2023-08-20T23:19:27;18.00;;;16.20;;
57899;SDS011;60605;53.716;19.940;2023-08-20T23:24:29;18.30;;;16.50;;
57899;SDS011;60605;53.716;19.940;2023-08-20T23:29:31;15.50;;;13.90;;
57899;SDS011;60605;53.716;19.940;2023-08-20T23:34:33;16.30;;;14.80;;
57899;SDS011;60605;53.716;19.940;2023-08-20T23:44:39;16.00;;;14.50;;
57899;SDS011;60605;53.716;19.940;2023-08-20T23:49:40;15.90;;;14.40;;
57899;SDS011;60605;53.716;19.940;2023-08-20T23:54:42;15.30;;;13.90;;
57899;SDS011;60605;53.716;19.940;2023-08-20T23:59:44;15.40;;;14.00;;
